< < Back
Terminal Aerodrome Forecast


Current Version              Previous Versions:   1  2  3  4  5  6  7  8  9  

Terminal Aerodrome Forecast

913
FTUS42 KGSP 291124
TAFHKY
TAF
KHKY 291124Z 2912/3012 29004KT P6SM FEW120 SCT250
     FM291800 26006KT P6SM VCTS SCT060CB
     FM292100 25006KT P6SM SCT060 PROB30 2921/3001 4SM -TSRA
      BKN040CB
     FM300100 31003KT P6SM BKN060
     FM300500 31003KT P6SM SCT060=

Latest METAR

007
SAUS70 KWBC 291400 RRB
MTRHKY
METAR KHKY 291353Z 31006KT 10SM CLR 27/19 A2999 RMK AO2 SLP131
T02720189


USA.gov is the U.S. government's official web portal to all federal, state and local government web resources and services.